地図

経路データ

SID SEASON NUMBER BASIN SUBBASIN NAME ISO_TIME NATURE LAT LON WMO_WIND WMO_PRES WMO_AGENCY TRACK_TYPE DIST2LAND LANDFALL IFLAG USA_AGENCY USA_ATCF_ID USA_LAT USA_LON USA_RECORD USA_STATUS USA_WIND USA_PRES USA_SSHS USA_R34_NE USA_R34_SE USA_R34_SW USA_R34_NW USA_R50_NE USA_R50_SE USA_R50_SW USA_R50_NW USA_R64_NE USA_R64_SE USA_R64_SW USA_R64_NW USA_POCI USA_ROCI USA_RMW USA_EYE TOKYO_LAT TOKYO_LON TOKYO_GRADE TOKYO_WIND TOKYO_PRES TOKYO_R50_DIR TOKYO_R50_LONG TOKYO_R50_SHORT TOKYO_R30_DIR TOKYO_R30_LONG TOKYO_R30_SHORT TOKYO_LAND CMA_LAT CMA_LON CMA_CAT CMA_WIND CMA_PRES HKO_LAT HKO_LON HKO_CAT HKO_WIND HKO_PRES NEWDELHI_LAT NEWDELHI_LON NEWDELHI_GRADE NEWDELHI_WIND NEWDELHI_PRES NEWDELHI_CI NEWDELHI_DP NEWDELHI_POCI REUNION_LAT REUNION_LON REUNION_TYPE REUNION_WIND REUNION_PRES REUNION_TNUM REUNION_CI REUNION_RMW REUNION_R34_NE REUNION_R34_SE REUNION_R34_SW REUNION_R34_NW REUNION_R50_NE REUNION_R50_SE REUNION_R50_SW REUNION_R50_NW REUNION_R64_NE REUNION_R64_SE REUNION_R64_SW REUNION_R64_NW BOM_LAT BOM_LON BOM_TYPE BOM_WIND BOM_PRES BOM_TNUM BOM_CI BOM_RMW BOM_R34_NE BOM_R34_SE BOM_R34_SW BOM_R34_NW BOM_R50_NE BOM_R50_SE BOM_R50_SW BOM_R50_NW BOM_R64_NE BOM_R64_SE BOM_R64_SW BOM_R64_NW BOM_ROCI BOM_POCI BOM_EYE BOM_POS_METHOD BOM_PRES_METHOD NADI_LAT NADI_LON NADI_CAT NADI_WIND NADI_PRES WELLINGTON_LAT WELLINGTON_LON WELLINGTON_WIND WELLINGTON_PRES DS824_LAT DS824_LON DS824_STAGE DS824_WIND DS824_PRES TD9636_LAT TD9636_LON TD9636_STAGE TD9636_WIND TD9636_PRES TD9635_LAT TD9635_LON TD9635_WIND TD9635_PRES TD9635_ROCI NEUMANN_LAT NEUMANN_LON NEUMANN_CLASS NEUMANN_WIND NEUMANN_PRES MLC_LAT MLC_LON MLC_CLASS MLC_WIND MLC_PRES USA_GUST BOM_GUST BOM_GUST_PER REUNION_GUST REUNION_GUST_PER USA_SEAHGT USA_SEARAD_NE USA_SEARAD_SE USA_SEARAD_SW USA_SEARAD_NW STORM_SPEED STORM_DIR
1963021S15155 1963 10 SP EA NOT_NAMED 1963-01-21 00:00:00 TS -15.1000 155.200 main 701 701 _________O____ -1 -15.1000 155.200 TC 20 1005 14 120
1963021S15155 1963 10 SP EA NOT_NAMED 1963-01-21 03:00:00 TS -15.4555 155.837 main 771 759 _________P____ -1 -15.4555 155.837 TC 22 1004 14 125
1963021S15155 1963 10 SP EA NOT_NAMED 1963-01-21 06:00:00 TS -15.9000 156.400 main 776 776 _________O____ -1 -15.9000 156.400 TC 25 1003 14 137
1963021S15155 1963 10 SP EA NOT_NAMED 1963-01-21 09:00:00 TS -16.4848 156.825 main 817 817 _________P____ -1 -16.4848 156.825 TC 25 1002 13 151
1963021S15155 1963 10 SP EA NOT_NAMED 1963-01-21 12:00:00 TS -17.0143 157.057 main 815 786 O________OO___ jtwc_sh SH211963 -16.9000 157.000 -1 -17.1000 157.100 TC 25 1002 -16.9000 157.000 1 8 145
1963021S15155 1963 10 SP EA NOT_NAMED 1963-01-21 15:00:00 TS -17.1601 157.323 main 786 767 P________PP___ SH211963 -16.8252 157.380 -1 -17.6599 157.260 TC 25 1002 -16.8303 157.334 1 5 111
1963021S15155 1963 10 SP EA NOT_NAMED 1963-01-21 18:00:00 TS -17.2019 157.562 main 757 733 O________OP___ jtwc_sh SH211963 -16.8000 157.700 -1 -18.1000 157.300 TC 25 1003 -16.8081 157.635 1 4 105
1963021S15155 1963 10 SP EA NOT_NAMED 1963-01-21 21:00:00 TS -17.2741 157.765 main 733 733 P________PP___ SH211963 -16.8749 157.910 -1 -18.4645 157.371 TC 22 1003 -16.8819 157.868 1 1 150
1963021S15155 1963 10 SP EA NOT_NAMED 1963-01-21 23:00:00 TS -17.2785 157.602 1007 bom main 752 761 P_____O__PP___ SH211963 -17.0052 157.983 -1 -15.5000 154.300 1007 -18.5401 157.299 TC 20 1003 -17.0083 157.969 1 12 287
1963021S15155 1963 10 SP EA NOT_NAMED 1963-01-22 00:00:00 TS -17.0895 157.146 main 810 810 O_____P__OO_O_ jtwc_sh SH211963 -17.1000 158.000 -1 -15.6949 154.565 1006 -18.5000 157.200 TC 20 1004 -17.1000 158.000 1 -15.5000 154.500 TC 15 1007 10 283
1963021S15155 1963 10 SP EA NOT_NAMED 1963-01-22 03:00:00 TS -17.1262 156.895 main 828 828 P_____P__PP_P_ SH211963 -17.4975 157.988 -1 -16.2591 155.307 1004 -17.6539 156.437 TC 22 1003 -17.4892 158.011 1 -16.0860 155.291 TC 20 1005 5 247
1963021S15155 1963 10 SP EA NOT_NAMED 1963-01-22 05:00:00 TS -17.2409 156.767 1003 bom main 833 828 P_____O__PP_P_ SH211963 -17.8285 157.933 -1 -16.6000 155.700 1003 -17.2628 155.947 TC 24 1003 -17.8157 157.966 1 -16.4408 155.729 TC 23 1003 5 217
1963021S15155 1963 10 SP EA NOT_NAMED 1963-01-22 06:00:00 TS -17.3350 156.726 main 838 788 O_____P__OP_O_ jtwc_sh SH211963 -18.0000 157.900 -1 -16.7551 155.851 1002 -17.3000 155.800 TC 25 1003 -17.9899 157.934 1 -16.6000 155.900 TC 25 1003 12 173
1963021S15155 1963 10 SP EA NOT_NAMED 1963-01-22 09:00:00 TS -18.0307 156.866 main 788 758 P_____P__PP_P_ SH211963 -18.5300 157.800 -1 -17.1706 156.157 1002 -19.2552 156.010 TC 20 1004 -18.5207 157.814 1 -17.0070 156.211 TC 25 1002 14 169
1963021S15155 1963 10 SP EA NOT_NAMED 1963-01-22 12:00:00 TS -18.6647 156.997 main 755 742 O_____P__OO_O_ jtwc_sh SH211963 -19.0000 157.700 -1 -17.5475 156.355 1002 -21.0000 156.500 TC 15 1006 -19.0000 157.700 1 -17.4000 156.400 TC 25 1002 10 166
1963021S15155 1963 10 SP EA NOT_NAMED 1963-01-22 14:00:00 TS -18.7966 157.069 1002 bom main 742 742 P_____O__PP_P_ SH211963 -19.2062 157.653 -1 -17.8000 156.500 1002 -20.4191 156.638 TC 20 1003 -19.1917 157.638 1 -17.7121 156.587 TC 25 1001 4 147
1963021S15155 1963 10 SP EA NOT_NAMED 1963-01-22 15:00:00 TS -18.8196 157.108 main 742 729 P_____P__PP_P_ SH211963 -19.2875 157.635 -1 -17.9227 156.597 1001 -19.8798 156.695 TC 22 1003 -19.2739 157.608 1 -17.8775 156.685 TC 25 1001 3 118
1963021S15155 1963 10 SP EA NOT_NAMED 1963-01-22 17:00:00 TS -18.8604 157.193 1000 bom main 729 729 P_____O__PP_P_ SH211963 -19.4298 157.608 -1 -18.2000 156.800 1000 -18.7757 156.820 TC 27 1000 -19.4219 157.557 1 -18.2223 156.892 TC 25 1001 3 127
1963021S15155 1963 10 SP EA NOT_NAMED 1963-01-22 18:00:00 TS -18.9123 157.241 main 729 699 O_____P__OP_O_ jtwc_sh SH211963 -19.5000 157.600 -1 -18.3840 156.903 1000 -18.4000 156.900 TC 30 1000 -19.4922 157.539 1 -18.4000 157.000 TC 25 1001 7 155
1963021S15155 1963 10 SP EA NOT_NAMED 1963-01-22 21:00:00 TS -19.3041 157.408 main 699 673 P_____P__PP_P_ SH211963 -19.7125 157.563 -1 -19.0517 157.237 1000 -18.7800 157.254 TC 30 1000 -19.7144 157.525 1 -18.9498 157.320 TC 27 1000 9 157
1963021S15155 1963 10 SP EA NOT_NAMED 1963-01-22 23:00:00 TS -19.6321 157.559 1000 bom main 673 670 P_____O__PP_P_ SH211963 -19.8881 157.575 -1 -19.5000 157.500 1000 -19.3981 157.544 TC 30 1000 -19.8941 157.563 1 -19.3196 157.564 TC 29 1000 11 155
1963021S15155 1963 10 SP EA NOT_NAMED 1963-01-23 00:00:00 TS -19.7981 157.650 main 670 625 O_____P__OO_O_ jtwc_sh SH211963 -20.0000 157.600 -1 -19.6864 157.647 1000 -19.7000 157.700 TC 30 1000 -20.0000 157.600 1 -19.5000 157.700 TC 30 1000 11 149
1963021S15155 1963 10 SP EA NOT_NAMED 1963-01-23 03:00:00 TS -20.2865 157.975 main 625 604 P_____P__PP_P_ SH211963 -20.4624 157.740 -1 -20.1908 158.143 1000 -20.2299 158.178 TC 30 1000 -20.4683 157.761 1 -20.0075 158.178 TC 30 1000 12 146
1963021S15155 1963 10 SP EA NOT_NAMED 1963-01-23 05:00:00 TS -20.6207 158.237 1000 bom main 605 585 P_____O__PP_P_ SH211963 -20.8202 157.900 -1 -20.5000 158.500 1000 -20.5468 158.523 TC 30 1000 -20.8192 157.923 1 -20.3360 158.526 TC 30 1000 13 143
1963021S15155 1963 10 SP EA NOT_NAMED 1963-01-23 06:00:00 TS -20.7873 158.378 main 585 549 O_____P__OP_O_ jtwc_sh SH211963 -21.0000 158.000 -1 -20.6504 158.680 1000 -20.7000 158.700 TC 30 1000 -20.9993 158.019 1 -20.5000 158.700 TC 30 1000 13 140
1963021S15155 1963 10 SP EA NOT_NAMED 1963-01-23 09:00:00 TS -21.2881 158.827 main 551 526 P_____P__PP_P_ SH211963 -21.5300 158.355 -1 -21.0896 159.236 1000 -21.1500 159.258 TC 30 1000 -21.5306 158.367 1 -21.0150 159.215 TC 30 1000 13 139
1963021S15155 1963 10 SP EA NOT_NAMED 1963-01-23 11:00:00 TS -21.6124 159.141 1000 bom main 529 512 P_____O__PP_P_ SH211963 -21.8561 158.645 -1 -21.4000 159.600 1000 -21.4469 159.626 TC 30 1000 -21.8542 158.647 1 -21.3447 159.545 TC 30 1000 13 138
1963021S15155 1963 10 SP EA NOT_NAMED 1963-01-23 12:00:00 TS -21.7732 159.293 main 515 488 O_____P__OO_O_ jtwc_sh SH211963 -22.0000 158.800 -1 -21.5824 159.783 1000 -21.6000 159.800 TC 30 1000 -22.0000 158.800 1 -21.5000 159.700 TC 30 1000 12 137
1963021S15155 1963 10 SP EA NOT_NAMED 1963-01-23 15:00:00 TS -22.2047 159.730 main 493 476 P_____P__PP_P_ SH211963 -22.3447 159.263 -1 -22.1541 160.303 1001 -22.0876 160.272 TC 27 1001 -22.3606 159.307 1 -21.9072 160.108 TC 27 1001 12 135
1963021S15155 1963 10 SP MM NOT_NAMED 1963-01-23 17:00:00 TS -22.4492 160.027 1002 bom main 476 472 P_____O__PP_P_ SH211963 -22.5217 159.611 -1 -22.5000 160.600 1002 -22.4280 160.559 TC 25 1001 -22.5470 159.679 1 -22.1661 160.367 TC 25 1001 10 133
1963021S15155 1963 10 SP MM NOT_NAMED 1963-01-23 18:00:00 TS -22.5525 160.138 main 478 449 O_____P__OP_O_ jtwc_sh SH211963 -22.6000 159.800 -1 -22.6472 160.726 1002 -22.6000 160.700 TC 25 1002 -22.6273 159.872 1 -22.3000 160.500 TC 25 1002 10 124
1963021S15155 1963 10 SP MM NOT_NAMED 1963-01-23 21:00:00 TS -22.8261 160.631 main 449 428 P_____P___P_P_ SH211963 -22.8107 160.425 -1 -23.0022 161.030 1003 TC -22.8303 160.476 1 -22.7354 160.934 TC 22 1003 11 119
1963021S15155 1963 10 SP MM NOT_NAMED 1963-01-23 23:00:00 TS -22.9923 160.995 1005 bom main 428 419 P_____O___P_P_ SH211963 -22.9381 160.872 -1 -23.2000 161.200 1005 TC -22.9452 160.891 1 -23.0438 161.243 TC 20 1004 11 114
1963021S15155 1963 10 SP MM NOT_NAMED 1963-01-24 00:00:00 TS -23.0500 161.175 main 411 O_________O_O_ jtwc_sh SH211963 -23.0000 161.100 -1 -23.0000 161.100 1 -23.2000 161.400 TC 20 1005 11 110

デジタル台風データ・検索

IBTrACS Databaseについて

本データベースは、米国NOAAが公開する1842年以降の世界の熱帯低気圧のベストトラックデータアーカイブInternational Best Track Archive for Climate Stewardship (IBTrACS)を、ウェブで閲覧しやすい形式に変換したものです。

最終更新日:2021-12-03